createdAt,value
2023-04-08T00:01:22.987Z,8.21
2023-04-08T00:03:49.703Z,8.20
2023-04-08T00:06:16.293Z,8.22
2023-04-08T00:08:42.788Z,8.21
2023-04-08T00:11:09.222Z,8.22
2023-04-08T00:13:35.787Z,8.22
2023-04-08T00:16:03.196Z,8.21
2023-04-08T00:18:29.668Z,8.19
2023-04-08T00:20:57.287Z,8.20
2023-04-08T00:23:23.848Z,8.18
2023-04-08T00:25:51.018Z,8.18
2023-04-08T00:28:17.500Z,8.20
2023-04-08T00:30:43.937Z,8.21
2023-04-08T00:33:10.476Z,8.21
2023-04-08T00:35:37.144Z,8.22
2023-04-08T00:38:04.256Z,8.23
2023-04-08T00:40:30.765Z,8.21
2023-04-08T00:42:58.234Z,8.22
2023-04-08T00:45:24.736Z,8.20
2023-04-08T00:47:52.748Z,8.20
2023-04-08T00:50:20.322Z,8.21
2023-04-08T00:52:46.886Z,8.20
2023-04-08T00:55:13.352Z,8.17
2023-04-08T00:57:39.956Z,8.17
2023-04-08T01:00:06.981Z,8.20
2023-04-08T01:02:56.917Z,8.20
2023-04-08T01:06:01.925Z,8.23
2023-04-08T01:08:31.352Z,8.25
2023-04-08T01:11:01.991Z,8.27
2023-04-08T01:13:31.498Z,8.27
2023-04-08T01:15:58.192Z,8.25
2023-04-08T01:18:24.928Z,8.23
2023-04-08T01:20:53.643Z,8.21
2023-04-08T01:23:38.728Z,8.21
2023-04-08T01:26:05.193Z,8.20
2023-04-08T01:28:34.014Z,8.18
2023-04-08T01:31:02.419Z,8.18
2023-04-08T01:33:30.665Z,8.17
2023-04-08T01:35:58.923Z,8.19
2023-04-08T01:38:27.185Z,8.21
2023-04-08T01:40:55.838Z,8.22
2023-04-08T01:43:23.387Z,8.22
2023-04-08T01:45:54.377Z,8.24
2023-04-08T01:48:21.381Z,8.26
2023-04-08T01:50:48.844Z,8.26
2023-04-08T01:53:15.430Z,8.25
2023-04-08T01:55:43.233Z,8.27
2023-04-08T01:58:17.175Z,8.26
2023-04-08T02:00:44.598Z,8.24
2023-04-08T02:03:12.681Z,8.26
2023-04-08T02:05:40.250Z,8.26
2023-04-08T02:08:06.818Z,8.22
2023-04-08T02:10:33.284Z,8.23
2023-04-08T02:12:59.994Z,8.22
2023-04-08T02:15:29.023Z,8.25
2023-04-08T02:18:00.781Z,8.26
2023-04-08T02:20:34.649Z,8.27
2023-04-08T02:23:20.668Z,8.25
2023-04-08T02:25:48.240Z,8.25
2023-04-08T02:28:17.835Z,8.26
2023-04-08T02:30:51.375Z,8.26
2023-04-08T02:33:24.136Z,8.26
2023-04-08T02:35:54.490Z,8.24
2023-04-08T02:38:21.573Z,8.24
2023-04-08T02:40:50.405Z,8.24
2023-04-08T02:43:16.929Z,8.21
2023-04-08T02:45:44.695Z,8.21
2023-04-08T02:48:11.207Z,8.22
2023-04-08T02:50:37.881Z,8.22
2023-04-08T02:53:04.363Z,8.21
2023-04-08T02:55:31.031Z,8.19
2023-04-08T02:57:57.451Z,8.18
2023-04-08T03:00:23.944Z,8.17
2023-04-08T03:02:50.485Z,8.18
2023-04-08T03:05:17.457Z,8.17
2023-04-08T03:07:43.878Z,8.17
2023-04-08T03:10:10.842Z,8.15
2023-04-08T03:12:37.404Z,8.14
2023-04-08T03:15:04.206Z,8.14
2023-04-08T03:17:33.668Z,8.12
2023-04-08T03:20:01.280Z,8.11
2023-04-08T03:22:27.766Z,8.07
2023-04-08T03:24:54.220Z,8.05
2023-04-08T03:27:20.673Z,8.06
2023-04-08T03:29:47.794Z,8.06
2023-04-08T03:32:14.544Z,8.08
2023-04-08T03:34:41.318Z,8.05
2023-04-08T03:37:08.216Z,8.05
2023-04-08T03:39:34.721Z,8.06
2023-04-08T03:42:02.993Z,8.05
2023-04-08T03:44:29.617Z,8.07
2023-04-08T03:46:56.112Z,8.06
2023-04-08T03:49:22.723Z,8.06
2023-04-08T03:51:49.129Z,8.06
2023-04-08T03:54:15.896Z,8.05
2023-04-08T03:56:42.390Z,8.01
2023-04-08T03:59:08.860Z,7.99
2023-04-08T04:01:35.421Z,7.98
2023-04-08T04:04:02.075Z,7.96
2023-04-08T04:06:28.829Z,7.96
2023-04-08T04:08:55.604Z,7.97
2023-04-08T04:11:22.534Z,7.95
2023-04-08T04:13:49.164Z,7.95
2023-04-08T04:16:15.744Z,7.86
2023-04-08T04:18:42.404Z,7.88
2023-04-08T04:21:08.816Z,7.85
2023-04-08T04:23:35.302Z,7.82
2023-04-08T04:26:01.758Z,7.83
2023-04-08T04:28:28.252Z,7.84
2023-04-08T04:30:56.372Z,7.84
2023-04-08T04:33:23.098Z,7.86
2023-04-08T04:35:49.578Z,7.86
2023-04-08T04:38:16.225Z,7.79
2023-04-08T04:40:42.697Z,7.78
2023-04-08T04:43:09.164Z,7.81
2023-04-08T04:45:36.008Z,7.82
2023-04-08T04:48:03.567Z,7.80
2023-04-08T04:50:30.473Z,7.81
2023-04-08T04:52:57.073Z,7.82
2023-04-08T04:55:23.498Z,7.81
2023-04-08T04:57:49.906Z,7.82
2023-04-08T05:00:17.081Z,7.82
2023-04-08T05:02:43.980Z,7.77
2023-04-08T05:05:10.941Z,7.75
2023-04-08T05:07:38.243Z,7.72
2023-04-08T05:10:06.032Z,7.70
2023-04-08T05:12:32.673Z,7.68
2023-04-08T05:15:02.150Z,7.64
2023-04-08T05:17:28.668Z,7.58
2023-04-08T05:19:55.117Z,7.56
2023-04-08T05:22:21.881Z,7.52
2023-04-08T05:24:48.919Z,7.45
2023-04-08T05:27:15.644Z,7.47
2023-04-08T05:29:42.413Z,7.46
2023-04-08T05:32:08.805Z,7.46
2023-04-08T05:34:35.456Z,7.47
2023-04-08T05:37:01.923Z,7.48
2023-04-08T05:39:28.575Z,7.43
2023-04-08T05:41:55.191Z,7.43
2023-04-08T05:44:21.641Z,7.41
2023-04-08T05:46:48.137Z,7.41
2023-04-08T05:49:15.719Z,7.38
2023-04-08T05:51:42.257Z,7.37
2023-04-08T05:54:09.162Z,7.40
2023-04-08T05:56:36.072Z,7.43
2023-04-08T05:59:02.504Z,7.46
2023-04-08T06:01:29.087Z,7.48
2023-04-08T06:03:58.562Z,7.50
2023-04-08T06:06:28.019Z,7.50
2023-04-08T06:08:54.469Z,7.48
2023-04-08T06:11:21.014Z,7.50
2023-04-08T06:13:48.061Z,7.44
2023-04-08T06:16:21.125Z,7.47
2023-04-08T06:18:48.341Z,7.53
2023-04-08T06:21:15.299Z,7.54
2023-04-08T06:23:41.732Z,7.54
2023-04-08T06:26:08.313Z,7.53
2023-04-08T06:28:34.798Z,7.53
2023-04-08T06:31:01.384Z,7.60
2023-04-08T06:33:27.883Z,7.59
2023-04-08T06:36:13.338Z,7.62
2023-04-08T06:38:39.780Z,7.64
2023-04-08T06:41:07.453Z,7.65
2023-04-08T06:43:35.081Z,7.67
2023-04-08T06:46:01.595Z,7.67
2023-04-08T06:48:30.293Z,7.65
2023-04-08T06:50:57.670Z,7.62
2023-04-08T06:53:24.944Z,7.63
2023-04-08T06:55:51.879Z,7.67
2023-04-08T06:58:18.729Z,7.62
2023-04-08T07:00:45.305Z,7.64
2023-04-08T07:03:11.983Z,7.54
2023-04-08T07:05:38.840Z,7.62
2023-04-08T07:08:06.450Z,7.68
2023-04-08T07:10:32.957Z,7.78
2023-04-08T07:12:59.389Z,7.79
2023-04-08T07:15:25.955Z,7.76
2023-04-08T07:17:52.462Z,7.80
2023-04-08T07:20:19.185Z,7.83
2023-04-08T07:22:45.776Z,7.85
2023-04-08T07:25:12.343Z,7.86
2023-04-08T07:27:38.833Z,7.86
2023-04-08T07:30:06.017Z,7.85
2023-04-08T07:32:33.918Z,7.90
2023-04-08T07:35:01.585Z,7.87
2023-04-08T07:37:28.337Z,7.88
2023-04-08T07:39:55.148Z,7.92
2023-04-08T07:42:22.005Z,7.88
2023-04-08T07:44:48.471Z,7.85
2023-04-08T07:47:14.890Z,7.85
2023-04-08T07:49:41.485Z,7.80
2023-04-08T07:52:07.973Z,7.85
2023-04-08T07:54:34.491Z,7.92
2023-04-08T07:57:02.142Z,7.91
2023-04-08T07:59:29.343Z,7.89
2023-04-08T08:01:55.857Z,7.91
2023-04-08T08:04:25.725Z,7.99
2023-04-08T08:06:52.400Z,8.03
2023-04-08T08:09:18.930Z,8.11
2023-04-08T08:11:45.441Z,8.10
2023-04-08T08:14:13.806Z,8.04
2023-04-08T08:16:40.493Z,8.12
2023-04-08T08:19:08.730Z,8.11
2023-04-08T08:21:39.390Z,8.09
2023-04-08T08:24:06.574Z,8.12
2023-04-08T08:26:39.045Z,8.12
2023-04-08T08:29:06.563Z,8.16
2023-04-08T08:31:33.012Z,8.12
2023-04-08T08:33:59.453Z,8.15
2023-04-08T08:36:27.416Z,8.10
2023-04-08T08:38:54.241Z,8.09
2023-04-08T08:41:21.483Z,8.10
2023-04-08T08:43:48.880Z,8.14
2023-04-08T08:46:18.286Z,8.21
2023-04-08T08:48:45.856Z,8.14
2023-04-08T08:51:13.361Z,8.15
2023-04-08T08:53:44.946Z,8.17
2023-04-08T08:58:41.583Z,8.22
2023-04-08T09:01:34.398Z,8.25
2023-04-08T09:04:20.113Z,8.21
2023-04-08T09:06:50.068Z,8.19
2023-04-08T09:09:17.778Z,8.19
2023-04-08T09:11:46.478Z,8.21
2023-04-08T09:14:24.073Z,8.18
2023-04-08T09:16:52.024Z,8.22
2023-04-08T09:19:18.863Z,8.22
2023-04-08T09:21:45.868Z,8.26
2023-04-08T09:24:29.065Z,8.37
2023-04-08T09:26:56.512Z,8.40
2023-04-08T09:29:31.150Z,8.47
2023-04-08T09:32:01.465Z,8.45
2023-04-08T09:34:32.491Z,8.55
2023-04-08T09:36:59.019Z,8.66
2023-04-08T09:39:25.688Z,8.82
2023-04-08T09:41:52.941Z,8.83
2023-04-08T09:44:21.756Z,8.83
2023-04-08T09:46:52.481Z,8.78
2023-04-08T09:49:27.415Z,8.73
2023-04-08T09:52:20.879Z,8.76
2023-04-08T09:55:04.744Z,8.89
2023-04-08T09:58:01.345Z,8.88
2023-04-08T10:00:53.222Z,8.82
2023-04-08T10:03:40.904Z,8.81
2023-04-08T10:06:10.405Z,8.78
2023-04-08T10:08:37.014Z,9.00
2023-04-08T10:11:03.637Z,9.11
2023-04-08T10:13:30.505Z,9.27
2023-04-08T10:16:27.641Z,9.33
2023-04-08T10:18:58.095Z,9.23
2023-04-08T10:21:31.544Z,9.21
2023-04-08T10:24:00.922Z,9.28
2023-04-08T10:26:33.623Z,9.26
2023-04-08T10:29:18.639Z,9.15
2023-04-08T10:31:46.270Z,9.21
2023-04-08T10:34:19.976Z,9.27
2023-04-08T10:36:46.870Z,9.31
2023-04-08T10:39:14.690Z,9.41
2023-04-08T10:41:49.492Z,9.45
2023-04-08T10:44:21.276Z,9.54
2023-04-08T10:46:49.462Z,9.50
2023-04-08T10:49:17.442Z,9.48
2023-04-08T10:51:44.845Z,9.58
2023-04-08T10:54:13.671Z,9.66
2023-04-08T10:56:46.612Z,9.81
2023-04-08T10:59:16.851Z,9.97
2023-04-08T11:01:45.329Z,10.01
2023-04-08T11:04:18.443Z,10.08
2023-04-08T11:06:47.369Z,10.13
2023-04-08T11:09:14.417Z,10.19
2023-04-08T11:11:45.287Z,10.19
2023-04-08T11:14:12.923Z,10.17
2023-04-08T11:16:39.609Z,10.08
2023-04-08T11:19:07.694Z,10.04
2023-04-08T11:21:37.565Z,10.02
2023-04-08T11:24:10.019Z,9.99
2023-04-08T11:26:37.292Z,9.99
2023-04-08T11:29:04.433Z,9.93
2023-04-08T11:31:34.575Z,9.89
2023-04-08T11:34:01.167Z,9.91
2023-04-08T11:36:30.046Z,9.90
2023-04-08T11:38:57.005Z,9.91
2023-04-08T11:41:23.825Z,9.82
2023-04-08T11:43:55.157Z,9.80
2023-04-08T11:46:22.324Z,9.80
2023-04-08T11:49:06.547Z,9.87
2023-04-08T11:51:34.810Z,9.84
2023-04-08T11:54:06.539Z,9.89
2023-04-08T11:56:44.906Z,9.75
2023-04-08T11:59:11.470Z,9.72
2023-04-08T12:01:38.029Z,9.74
2023-04-08T12:04:05.759Z,9.74
2023-04-08T12:06:32.349Z,9.76
2023-04-08T12:08:59.759Z,9.71
2023-04-08T12:11:26.309Z,9.63
2023-04-08T12:13:53.272Z,9.64
2023-04-08T12:16:20.625Z,9.62
2023-04-08T12:18:47.668Z,9.53
2023-04-08T12:21:14.219Z,9.44
2023-04-08T12:23:40.726Z,9.41
2023-04-08T12:26:07.980Z,9.43
2023-04-08T12:28:37.306Z,9.43
2023-04-08T12:31:04.121Z,9.47
2023-04-08T12:33:31.315Z,9.48
2023-04-08T12:35:59.106Z,9.64
2023-04-08T12:38:27.067Z,9.81
2023-04-08T12:40:54.007Z,9.97
2023-04-08T12:43:21.009Z,9.85
2023-04-08T12:45:48.997Z,9.87
2023-04-08T12:48:15.589Z,9.83
2023-04-08T12:50:42.167Z,9.87
2023-04-08T12:53:08.707Z,9.94
2023-04-08T12:55:35.292Z,9.97
2023-04-08T12:58:01.808Z,9.89
2023-04-08T13:00:28.291Z,9.88
2023-04-08T13:02:54.868Z,10.02
2023-04-08T13:05:29.473Z,10.15
2023-04-08T13:07:59.546Z,10.29
2023-04-08T13:10:26.613Z,10.36
2023-04-08T13:12:53.256Z,10.44
2023-04-08T13:15:19.813Z,10.30
2023-04-08T13:17:46.271Z,10.22
2023-04-08T13:20:12.748Z,10.42
2023-04-08T13:22:41.259Z,10.71
2023-04-08T13:25:08.058Z,10.88
2023-04-08T13:27:34.516Z,10.98
2023-04-08T13:30:01.194Z,10.91
2023-04-08T13:32:27.725Z,10.74
2023-04-08T13:34:54.273Z,10.65
2023-04-08T13:37:20.724Z,10.83
2023-04-08T13:39:47.201Z,11.01
2023-04-08T13:42:13.636Z,11.29
2023-04-08T13:44:40.117Z,11.08
2023-04-08T13:47:06.546Z,10.92
2023-04-08T13:49:32.971Z,10.79
2023-04-08T13:51:59.515Z,10.66
2023-04-08T13:54:26.028Z,10.51
2023-04-08T13:56:52.596Z,10.48
2023-04-08T13:59:19.044Z,10.53
2023-04-08T14:01:45.633Z,10.55
2023-04-08T14:04:12.153Z,10.54
2023-04-08T14:06:38.654Z,10.58
2023-04-08T14:09:05.232Z,10.53
2023-04-08T14:11:31.789Z,10.54
2023-04-08T14:13:58.263Z,10.47
2023-04-08T14:16:25.035Z,10.60
2023-04-08T14:18:51.866Z,10.69
2023-04-08T14:21:18.737Z,10.83
2023-04-08T14:23:45.525Z,10.79
2023-04-08T14:26:12.099Z,10.81
2023-04-08T14:28:38.584Z,10.70
2023-04-08T14:31:06.189Z,10.70
2023-04-08T14:33:33.097Z,10.70
2023-04-08T14:36:00.204Z,10.81
2023-04-08T14:38:26.813Z,10.78
2023-04-08T14:40:54.633Z,10.78
2023-04-08T14:43:24.053Z,10.67
2023-04-08T14:45:51.734Z,10.61
2023-04-08T14:48:19.373Z,10.56
2023-04-08T14:50:46.232Z,10.61
2023-04-08T14:53:12.656Z,10.67
2023-04-08T14:55:39.176Z,10.76
2023-04-08T14:58:05.811Z,10.78
2023-04-08T15:00:32.331Z,10.79
2023-04-08T15:02:59.191Z,10.79
2023-04-08T15:05:25.745Z,10.78
2023-04-08T15:07:52.512Z,10.76
2023-04-08T15:10:18.996Z,10.74
2023-04-08T15:12:45.678Z,10.74
2023-04-08T15:15:12.209Z,10.65
2023-04-08T15:17:38.760Z,10.58
2023-04-08T15:20:05.861Z,10.52
2023-04-08T15:22:32.551Z,10.38
2023-04-08T15:24:58.997Z,10.37
2023-04-08T15:27:25.507Z,10.45
2023-04-08T15:29:52.382Z,10.46
2023-04-08T15:32:18.931Z,10.45
2023-04-08T15:34:45.443Z,10.46
2023-04-08T15:37:11.879Z,10.48
2023-04-08T15:39:38.356Z,10.50
2023-04-08T15:42:05.402Z,10.44
2023-04-08T15:44:32.716Z,10.40
2023-04-08T15:46:59.234Z,10.35
2023-04-08T15:49:26.486Z,10.33
2023-04-08T15:51:53.571Z,10.30
2023-04-08T15:54:20.185Z,10.32
2023-04-08T15:56:46.931Z,10.34
2023-04-08T15:59:13.831Z,10.40
2023-04-08T16:01:43.230Z,10.39
2023-04-08T16:04:10.019Z,10.40
2023-04-08T16:06:36.844Z,10.35
2023-04-08T16:09:03.490Z,10.36
2023-04-08T16:11:29.972Z,10.29
2023-04-08T16:13:57.308Z,10.30
2023-04-08T16:16:23.822Z,10.27
2023-04-08T16:18:50.570Z,10.26
2023-04-08T16:21:17.325Z,10.23
2023-04-08T16:23:43.882Z,10.20
2023-04-08T16:26:10.725Z,10.19
2023-04-08T16:28:38.945Z,10.19
2023-04-08T16:31:06.385Z,10.24
2023-04-08T16:33:33.393Z,10.17
2023-04-08T16:36:00.746Z,10.15
2023-04-08T16:38:27.747Z,10.17
2023-04-08T16:40:57.643Z,10.13
2023-04-08T16:43:24.953Z,10.08
2023-04-08T16:45:53.103Z,10.04
2023-04-08T16:48:19.843Z,10.04
2023-04-08T16:50:46.325Z,10.05
2023-04-08T16:53:12.770Z,10.05
2023-04-08T16:55:39.245Z,10.03
2023-04-08T16:58:06.089Z,10.01
2023-04-08T17:00:32.534Z,9.99
2023-04-08T17:02:59.193Z,9.98
2023-04-08T17:05:26.595Z,9.96
2023-04-08T17:07:53.214Z,9.97
2023-04-08T17:10:22.105Z,9.95
2023-04-08T17:12:48.584Z,9.90
2023-04-08T17:15:15.126Z,9.87
2023-04-08T17:17:41.762Z,9.84
2023-04-08T17:20:08.727Z,9.77
2023-04-08T17:22:35.687Z,9.81
2023-04-08T17:25:02.156Z,9.80
2023-04-08T17:27:28.686Z,9.77
2023-04-08T17:29:57.796Z,9.74
2023-04-08T17:32:24.796Z,9.69
2023-04-08T17:34:52.336Z,9.67
2023-04-08T17:37:19.226Z,9.64
2023-04-08T17:39:45.894Z,9.65
2023-04-08T17:42:13.179Z,9.63
2023-04-08T17:44:42.237Z,9.61
2023-04-08T17:47:08.877Z,9.59
2023-04-08T17:49:35.480Z,9.58
2023-04-08T17:52:02.032Z,9.55
2023-04-08T17:54:28.479Z,9.55
2023-04-08T17:56:54.932Z,9.52
2023-04-08T17:59:21.419Z,9.49
2023-04-08T18:01:48.076Z,9.45
2023-04-08T18:04:14.718Z,9.41
2023-04-08T18:06:41.250Z,9.38
2023-04-08T18:09:08.258Z,9.41
2023-04-08T18:11:34.746Z,9.38
2023-04-08T18:14:01.181Z,9.34
2023-04-08T18:16:27.793Z,9.31
2023-04-08T18:18:54.289Z,9.32
2023-04-08T18:21:21.995Z,9.29
2023-04-08T18:23:49.997Z,9.29
2023-04-08T18:26:17.136Z,9.28
2023-04-08T18:28:43.667Z,9.29
2023-04-08T18:31:10.356Z,9.29
2023-04-08T18:33:38.863Z,9.29
2023-04-08T18:36:07.023Z,9.27
2023-04-08T18:38:33.566Z,9.26
2023-04-08T18:41:00.639Z,9.25
2023-04-08T18:43:28.737Z,9.24
2023-04-08T18:45:55.553Z,9.22
2023-04-08T18:48:22.063Z,9.22
2023-04-08T18:50:48.793Z,9.22
2023-04-08T18:53:15.362Z,9.22
2023-04-08T18:55:44.633Z,9.22
2023-04-08T18:58:11.529Z,9.20
2023-04-08T19:00:41.911Z,9.18
2023-04-08T19:03:10.258Z,9.14
2023-04-08T19:05:37.534Z,9.11
2023-04-08T19:08:04.566Z,9.07
2023-04-08T19:10:34.738Z,9.00
2023-04-08T19:13:01.975Z,8.96
2023-04-08T19:15:31.667Z,8.93
2023-04-08T19:17:59.355Z,8.95
2023-04-08T19:20:27.205Z,8.94
2023-04-08T19:22:53.689Z,8.92
2023-04-08T19:25:20.470Z,8.91
2023-04-08T19:27:47.647Z,8.90
2023-04-08T19:30:14.187Z,8.90
2023-04-08T19:32:40.801Z,8.88
2023-04-08T19:35:07.853Z,8.80
2023-04-08T19:37:34.601Z,8.78
2023-04-08T19:40:01.077Z,8.78
2023-04-08T19:42:27.621Z,8.74
2023-04-08T19:44:55.107Z,8.73
2023-04-08T19:47:22.143Z,8.70
2023-04-08T19:49:48.696Z,8.68
2023-04-08T19:52:15.316Z,8.67
2023-04-08T19:54:43.335Z,8.66
2023-04-08T19:57:10.918Z,8.64
2023-04-08T19:59:38.146Z,8.64
2023-04-08T20:02:05.072Z,8.59
2023-04-08T20:04:32.045Z,8.53
2023-04-08T20:07:01.117Z,8.52
2023-04-08T20:09:27.577Z,8.47
2023-04-08T20:11:54.024Z,8.46
2023-04-08T20:14:20.534Z,8.49
2023-04-08T20:16:47.146Z,8.45
2023-04-08T20:19:13.543Z,8.42
2023-04-08T20:21:39.962Z,8.42
2023-04-08T20:24:07.243Z,8.41
2023-04-08T20:26:33.676Z,8.44
2023-04-08T20:29:00.568Z,8.43
2023-04-08T20:31:27.909Z,8.43
2023-04-08T20:33:54.465Z,8.36
2023-04-08T20:36:22.100Z,8.30
2023-04-08T20:38:48.582Z,8.27
2023-04-08T20:41:20.136Z,8.27
2023-04-08T20:43:46.612Z,8.28
2023-04-08T20:46:13.110Z,8.25
2023-04-08T20:48:39.564Z,8.23
2023-04-08T20:51:06.099Z,8.20
2023-04-08T20:53:34.418Z,8.17
2023-04-08T20:56:01.822Z,8.18
2023-04-08T20:58:28.730Z,8.19
2023-04-08T21:00:57.567Z,8.20
2023-04-08T21:03:24.497Z,8.17
2023-04-08T21:05:52.679Z,8.18
2023-04-08T21:08:19.188Z,8.22
2023-04-08T21:10:45.765Z,8.23
2023-04-08T21:13:12.275Z,8.18
2023-04-08T21:15:39.020Z,8.13
2023-04-08T21:18:06.408Z,8.12
2023-04-08T21:20:32.868Z,8.18
2023-04-08T21:23:00.473Z,8.19
2023-04-08T21:25:26.895Z,8.25
2023-04-08T21:27:53.700Z,8.27
2023-04-08T21:30:21.333Z,8.29
2023-04-08T21:32:47.893Z,8.28
2023-04-08T21:35:15.331Z,8.33
2023-04-08T21:37:42.122Z,8.33
2023-04-08T21:40:09.101Z,8.34
2023-04-08T21:42:35.672Z,8.34
2023-04-08T21:45:02.144Z,8.31
2023-04-08T21:47:28.618Z,8.33
2023-04-08T21:49:55.919Z,8.31
2023-04-08T21:52:22.347Z,8.31
2023-04-08T21:54:52.738Z,8.31
2023-04-08T21:57:19.236Z,8.35
2023-04-08T21:59:45.857Z,8.36
2023-04-08T22:02:12.462Z,8.39
2023-04-08T22:04:39.084Z,8.41
2023-04-08T22:07:05.540Z,8.43
2023-04-08T22:09:32.314Z,8.46
2023-04-08T22:11:58.854Z,8.45
2023-04-08T22:14:25.275Z,8.46
2023-04-08T22:16:51.751Z,8.47
2023-04-08T22:19:18.224Z,8.46
2023-04-08T22:21:44.692Z,8.45
2023-04-08T22:24:11.245Z,8.44
2023-04-08T22:26:37.890Z,8.43
2023-04-08T22:29:04.449Z,8.43
2023-04-08T22:31:31.213Z,8.41
2023-04-08T22:33:57.698Z,8.41
2023-04-08T22:36:24.103Z,8.40
2023-04-08T22:38:50.844Z,8.39
2023-04-08T22:41:21.952Z,8.38
2023-04-08T22:43:49.508Z,8.36
2023-04-08T22:46:18.130Z,8.37
2023-04-08T22:48:45.104Z,8.37
2023-04-08T22:51:12.673Z,8.35
2023-04-08T22:53:39.228Z,8.33
2023-04-08T22:56:05.869Z,8.32
2023-04-08T22:58:32.440Z,8.29
2023-04-08T23:00:58.952Z,8.30
2023-04-08T23:03:25.553Z,8.31
2023-04-08T23:05:52.256Z,8.27
2023-04-08T23:08:18.670Z,8.27
2023-04-08T23:10:45.251Z,8.22
2023-04-08T23:13:11.881Z,8.21
2023-04-08T23:15:38.592Z,8.22
2023-04-08T23:18:05.078Z,8.18
2023-04-08T23:20:31.951Z,8.18
2023-04-08T23:22:58.376Z,8.19
2023-04-08T23:25:24.813Z,8.18
2023-04-08T23:27:51.237Z,8.19
2023-04-08T23:30:17.864Z,8.17
2023-04-08T23:32:44.344Z,8.13
2023-04-08T23:35:10.831Z,8.10
2023-04-08T23:37:37.263Z,8.09
2023-04-08T23:40:03.924Z,8.07
2023-04-08T23:42:30.601Z,8.06
2023-04-08T23:44:57.063Z,8.06
2023-04-08T23:47:23.568Z,8.08
2023-04-08T23:49:50.030Z,8.06
2023-04-08T23:52:16.639Z,8.02
2023-04-08T23:54:43.079Z,7.96
2023-04-08T23:57:09.568Z,7.95
2023-04-08T23:59:36.079Z,7.94
